Aviation Digital Data Service (ADDS)

Output produced by METARs form (2319 UTC 23 May 2022)
found at http://www.aviationweather.gov/metar/data/
 
TAF KDAA 232000Z 2320/2502 VRB06KT 9999 BKN060 OVC080 QNH3017INS 
     BECMG 2322/2323 VRB06KT 9999 VCSH SCT030 BKN050 OVC080 QNH3015INS 
     BECMG 2400/2401 VRB06KT 9000 -RA BR SCT025 BKN045 OVC060 QNH3012INS 
     BECMG 2405/2406 VRB06KT 8000 -RA BR FEW015 BKN025 OVC040 QNH3018INS 
     BECMG 2408/2409 VRB06KT 8000 -RA BR SCT012 OVC020 QNH3017INS 
     BECMG 2410/2411 VRB06KT 6000 -RA BR BKN005 OVC012 QNH3019INS 
     BECMG 2412/2413 VRB06KT 8000 -RA SCT005 OVC012 QNH3021INS 
     BECMG 2413/2414 VRB06KT 8000 -DZ BR SCT005 OVC012 QNH3022INS 
     BECMG 2416/2417 08012KT 9000 -DZ OVC012 QNH3024INS 
     BECMG 2417/2418 08010G15KT 9000 -DZ BKN012 OVC020 QNH3023INS 
     BECMG 2501/2502 VRB06KT 9999 NSW SCT027 OVC040 QNH3027INS TX17/2420Z
TN15/2409Z LAST NO AMDS AFT 2401 NEXT 2412
       
KDAB 231733Z 2318/2418 12009KT P6SM FEW035 
     FM240200 16003KT P6SM FEW025 
     FM241400 14008KT P6SM SCT035 SCT250
       
KDAG 231720Z 2318/2418 05007KT P6SM SKC 
     FM240300 26013KT P6SM SKC 
     FM241700 04006KT P6SM SKC
       
KDAL 232112Z 2321/2418 10011KT P6SM BKN035 
     FM240200 11012KT P6SM VCSH BKN030 
     FM240600 13012KT P6SM VCTS BKN025CB 
     TEMPO 2410/2414 13012KT P6SM TSRA BKN009CB 
     FM241500 14011KT P6SM VCSH BKN012
       
KDAN 232148Z 2322/2418 04012G20KT 6SM -SHRA SCT015 OVC035 
     TEMPO 2322/2324 3SM SHRA OVC018 
     FM240100 06011KT 4SM SHRA OVC008 
     FM240400 04008KT 3SM -SHRA OVC003 
     FM241400 05006KT 6SM BR OVC008
       
KDAY 231731Z 2318/2418 04010KT P6SM SCT050 BKN100 
     FM240000 03008KT P6SM SCT080 BKN200 
     FM241400 05008KT P6SM SCT040 BKN250
       
KDBQ 231720Z 2318/2418 07009KT P6SM SCT050 BKN150
       
KDCA 232108Z 2321/2424 35008G16KT P6SM VCSH SCT060 OVC130 
     FM240100 01005KT 6SM -RA SCT035 BKN050 OVC100 
     FM240900 VRB03KT 5SM -RA BR BKN025 OVC035 
     FM241400 08008KT P6SM VCSH BKN025 OVC050 
     FM242000 06008G16KT P6SM VCSH SCT015 OVC050
       
KDDC 231720Z 2318/2418 14015G24KT P6SM VCSH OVC045 
     FM240100 10009KT P6SM VCTS OVC016CB 
     FM240500 08010KT 3SM SHRA BR VCTS OVC006CB 
     FM240600 07010KT 3SM SHRA BR OVC004
       
KDEC 231720Z 2318/2418 06011KT P6SM SKC 
     FM240300 05006KT P6SM FEW050 SCT100 
     FM241500 09010KT P6SM FEW050 SCT100
       
KDEN 232055Z 2321/2424 02013G20KT P6SM SCT050 SCT080 BKN200 
     FM240100 06010KT P6SM VCSH SCT040 BKN060 
     FM240700 VRB05KT P6SM VCSH BKN020 OVC060 
     FM241400 08007KT P6SM BKN020 BKN050 
     FM242100 05008KT P6SM VCSH FEW030 SCT050 BKN120
       
KDET 231720Z 2318/2418 05008KT P6SM SCT045 BKN060 
     FM240200 02005KT P6SM BKN200 
     FM241600 06008KT P6SM SCT250
       
KDFW 232112Z 2321/2424 12011KT P6SM BKN035 
     FM240200 11012KT P6SM VCSH BKN030 
     FM240600 13012KT P6SM VCTS BKN025CB 
     TEMPO 2410/2414 13012KT P6SM TSRA BKN009CB 
     FM241500 14011KT P6SM VCSH BKN012
       
KDHN 231720Z 2318/2418 21011KT P6SM SCT035 
     FM240000 23005KT P6SM SHRA VCTS BKN040CB 
     FM241000 17003KT P6SM BKN012 
     FM241500 15008KT P6SM SCT015 BKN035
       
KDHT 232152Z 2322/2418 14016G26KT P6SM VCTS FEW050CB BKN070 
     FM232300 14020KT 6SM -TSRA BKN035CB OVC080 
     FM240200 11015KT P6SM SHRA OVC010 
     FM240600 05013KT 5SM -SHRA OVC008 
     FM241700 36019G30KT P6SM OVC010
       
KDIK 232155Z 2322/2418 VRB05KT P6SM FEW050 BKN100 
     FM232300 VRB05KT P6SM VCTS FEW050CB BKN100 
     FM240100 18009KT P6SM FEW050 SCT100
       
TAF KDLF 231900Z 2319/2501 12015G20KT 9999 VCSH BKN035 BKN180 QNH2992INS 
     BECMG 2319/2320 10010KT 9999 VCTS BKN030CB OVC055 QNH2989INS 
     BECMG 2320/2321 VRB40G50KT 3200 +TSRAGR BKN015CB QNH2978INS 
     BECMG 2403/2404 11012KT 9999 NSW BKN030 QNH2980INS 
     BECMG 2409/2410 12010KT 8000 -SHRA VCTS BKN030CB QNH2972INS 
     BECMG 2416/2417 11010KT 9999 VCTS BKN020CB QNH2971INS 
     BECMG 2419/2420 16006KT 9999 NSW FEW030 QNH2959INS TX29/2320Z TN21/2410Z
       
KDLH 231732Z 2318/2418 23008KT P6SM SCT060 BKN080 
     TEMPO 2318/2320 24009G17KT 
     FM232000 22008KT P6SM SCT050 BKN080
       
KDLS 231742Z 2318/2418 30011KT P6SM BKN100 
     FM232000 31020G30KT P6SM SCT100 BKN250 
     FM240500 30010KT P6SM BKN250 
     FM240800 30006KT P6SM SCT250
       
TAF KDMA 232200Z 2322/2504 30012KT 9999 SKC 510009 QNH2977INS 
     TEMPO 2322/2403 30014G22KT 
     BECMG 2402/2403 27012KT 9999 SKC QNH2984INS 
     BECMG 2404/2405 VRB06KT 9999 SKC QNH2985INS 
     BECMG 2417/2418 30009KT 9999 SKC QNH2979INS TX34/2322Z TN13/2412Z
       
KDMN 231734Z 2318/2418 25010KT P6SM SCT250 
     FM232000 28017G27KT P6SM FEW200 
     FM240300 29010G20KT P6SM SKC
       
KDNL 232047Z 2321/2418 14007KT P6SM VCSH SCT015 BKN040 
     TEMPO 2322/2401 VRB15G25KT 1SM TSRA BR BKN020CB BKN035 
     FM240300 VRB04KT P6SM BKN100 
     FM241500 22006KT P6SM OVC050
       
TAF KDOV 231600Z 2316/2422 01010G15KT 9999 SCT200 QNH3017INS 
     BECMG 2318/2319 01010KT 9999 BKN080 QNH3015INS 
     BECMG 2321/2322 12006KT 9999 BKN050 QNH3020INS 
     BECMG 2405/2406 08010KT 8000 -RA BR SCT020 OVC030 QNH3019INS 
     BECMG 2411/2412 08012G18KT 9999 NSW OVC030 QNH3024INS 
     TEMPO 2412/2414 9000 -SHRA OVC020 
     BECMG 2414/2415 09015G20KT 9999 OVC060 QNH3027INS TX21/2320Z TN14/2408Z
       
KDPA 232100Z 2321/2418 06010KT P6SM FEW050 BKN150
       
KDRO 231740Z 2318/2418 26015G25KT P6SM SCT150 OVC250 
     FM231900 29020G30KT P6SM BKN100 
     FM240100 28011KT P6SM SCT070 BKN150 
     FM240300 31005KT P6SM SCT070 BKN150 
     FM240500 28005KT P6SM FEW070 SCT120 
     FM241100 23005KT P6SM FEW080 FEW250
       
KDRT 232241Z 2323/2418 00000KT 6SM -RA VCTS SCT050CB BKN100 
     FM240400 13009KT P6SM BKN060 
     FM240900 12008KT P6SM BKN025
       
KDSM 231720Z 2318/2418 09008KT P6SM BKN200 
     FM241500 11009KT P6SM -SHRA OVC050
       
KDTW 232029Z 2320/2424 08008KT P6SM BKN040 BKN060 
     FM240200 02005KT P6SM BKN200 
     FM241600 06008KT P6SM SCT250
       
KDUJ 231720Z 2318/2418 02005KT P6SM BKN250 
     FM240600 08004KT P6SM BKN100 
     FM241500 11008KT P6SM BKN025 
     FM241700 13008G16KT P6SM OVC015
       
KDVL 231732Z 2318/2418 20008KT P6SM VCSH BKN080 
     FM232100 18013KT P6SM VCTS BKN070CB 
     FM240000 23012KT P6SM VCSH BKN080 
     FM240300 22010KT P6SM BKN090 
     FM241500 21014KT P6SM FEW250
       
KDVT 231720Z 2318/2418 VRB04KT P6SM FEW250 
     FM231900 21006KT P6SM FEW250 
     FM232100 24010G20KT P6SM FEW250 
     FM240500 24005KT P6SM FEW250 
     FM240800 VRB05KT P6SM FEW250
       
TAF KDYS 232000Z 2320/2502 VRB15G25KT 9000 -TSRA BKN035CB QNH2990INS 
     BECMG 2322/2323 15012G18KT 9999 NSW BKN020 QNH2988INS 
     TEMPO 2401/2403 VRB15G25KT 9000 -TSRA BKN020CB 
     BECMG 2402/2403 17015G25KT 9999 BKN025 QNH2986INS 
     BECMG 2405/2406 17015G25KT 9999 OVC010 QNH2974INS 
     BECMG 2412/2413 19012G18KT 9999 BKN020 QNH2968INS 
     BECMG 2417/2418 23012G18KT 9999 SCT050 QNH2958INS 
     BECMG 2421/2422 VRB15G25KT 9000 -TSRA BKN060CB QNH2958INS TX30/2420Z
TN19/2406Z